createdAt,value
2022-08-02T00:00:34.046Z,2.40
2022-08-02T00:03:00.521Z,2.47
2022-08-02T00:05:27.110Z,2.35
2022-08-02T00:07:53.650Z,2.47
2022-08-02T00:10:20.154Z,2.13
2022-08-02T00:12:46.624Z,2.00
2022-08-02T00:15:16.072Z,2.17
2022-08-02T00:17:44.172Z,2.22
2022-08-02T00:20:11.840Z,2.53
2022-08-02T00:22:38.637Z,2.50
2022-08-02T00:25:05.652Z,2.15
2022-08-02T00:27:32.391Z,2.10
2022-08-02T00:29:58.908Z,2.58
2022-08-02T00:32:25.461Z,2.35
2022-08-02T00:34:52.201Z,2.75
2022-08-02T00:37:18.859Z,2.30
2022-08-02T00:39:45.390Z,2.40
2022-08-02T00:42:15.254Z,2.60
2022-08-02T00:44:42.332Z,2.33
2022-08-02T00:47:09.271Z,2.28
2022-08-02T00:49:35.841Z,2.30
2022-08-02T00:52:02.752Z,2.50
2022-08-02T00:54:30.270Z,2.28
2022-08-02T00:56:56.786Z,2.63
2022-08-02T00:59:43.381Z,2.25
2022-08-02T01:02:29.959Z,2.83
2022-08-02T01:05:16.533Z,2.30
2022-08-02T01:08:04.341Z,2.40
2022-08-02T01:10:50.905Z,2.88
2022-08-02T01:13:37.618Z,2.70
2022-08-02T01:16:14.885Z,2.67
2022-08-02T01:18:47.713Z,2.95
2022-08-02T01:21:20.138Z,3.13
2022-08-02T01:24:05.534Z,3.40
2022-08-02T01:26:42.353Z,3.42
2022-08-02T01:29:16.903Z,2.70
2022-08-02T01:31:48.723Z,2.78
2022-08-02T01:34:24.387Z,3.58
2022-08-02T01:37:21.806Z,3.67
2022-08-02T01:39:55.685Z,4.38
2022-08-02T01:42:25.341Z,4.18
2022-08-02T01:44:53.808Z,4.07
2022-08-02T01:47:26.380Z,4.00
2022-08-02T01:49:56.247Z,4.05
2022-08-02T01:52:26.218Z,3.10
2022-08-02T01:55:01.091Z,2.45
2022-08-02T01:57:41.982Z,2.80
2022-08-02T02:00:10.620Z,2.63
2022-08-02T02:02:41.596Z,2.83
2022-08-02T02:05:13.192Z,2.58
2022-08-02T02:07:42.273Z,2.70
2022-08-02T02:10:11.899Z,2.38
2022-08-02T02:12:40.125Z,2.90
2022-08-02T02:15:11.261Z,2.67
2022-08-02T02:17:50.528Z,2.95
2022-08-02T02:20:28.903Z,2.95
2022-08-02T02:22:55.759Z,2.90
2022-08-02T02:25:24.336Z,2.53
2022-08-02T02:28:06.947Z,2.58
2022-08-02T02:30:34.577Z,2.90
2022-08-02T02:33:03.241Z,2.83
2022-08-02T02:35:33.664Z,2.47
2022-08-02T02:40:29.198Z,2.88
2022-08-02T02:42:58.068Z,2.67
2022-08-02T02:45:25.940Z,2.80
2022-08-02T02:47:55.078Z,2.75
2022-08-02T02:50:22.827Z,2.90
2022-08-02T02:52:50.652Z,2.75
2022-08-02T02:55:17.934Z,3.03
2022-08-02T02:57:45.556Z,2.90
2022-08-02T03:00:13.728Z,3.20
2022-08-02T03:02:42.513Z,2.80
2022-08-02T03:05:10.623Z,2.80
2022-08-02T03:07:37.219Z,3.13
2022-08-02T03:10:06.461Z,2.92
2022-08-02T03:12:34.820Z,3.05
2022-08-02T03:15:07.676Z,3.47
2022-08-02T03:17:52.597Z,3.10
2022-08-02T03:20:20.432Z,3.17
2022-08-02T03:22:47.805Z,3.38
2022-08-02T03:25:15.932Z,3.20
2022-08-02T03:27:42.972Z,3.10
2022-08-02T03:30:11.793Z,3.05
2022-08-02T03:32:40.587Z,3.15
2022-08-02T03:35:10.658Z,3.17
2022-08-02T03:37:37.675Z,3.70
2022-08-02T03:40:08.117Z,3.10
2022-08-02T03:42:34.737Z,3.65
2022-08-02T03:45:08.213Z,3.50
2022-08-02T03:47:37.552Z,3.08
2022-08-02T03:50:04.885Z,3.22
2022-08-02T03:52:33.356Z,3.35
2022-08-02T03:54:59.955Z,3.50
2022-08-02T03:57:26.853Z,3.00
2022-08-02T03:59:53.310Z,3.25
2022-08-02T04:02:20.035Z,2.92
2022-08-02T04:04:46.495Z,3.47
2022-08-02T04:07:13.232Z,3.10
2022-08-02T04:09:39.823Z,3.00
2022-08-02T04:12:06.552Z,3.00
2022-08-02T04:14:35.586Z,3.10
2022-08-02T04:17:07.300Z,3.33
2022-08-02T04:19:50.012Z,3.83
2022-08-02T04:22:21.271Z,2.95
2022-08-02T04:24:51.859Z,3.30
2022-08-02T04:27:50.666Z,3.15
2022-08-02T04:30:08.266Z,2.97
2022-08-02T04:32:35.573Z,3.40
2022-08-02T04:38:09.293Z,3.00
2022-08-02T04:40:36.442Z,2.95
2022-08-02T04:43:03.021Z,3.28
2022-08-02T04:45:30.614Z,3.30
2022-08-02T04:48:05.648Z,2.67
2022-08-02T04:50:33.520Z,3.40
2022-08-02T04:53:00.031Z,2.80
2022-08-02T04:55:28.685Z,2.92
2022-08-02T04:57:57.281Z,3.00
2022-08-02T05:00:27.497Z,3.10
2022-08-02T05:02:56.344Z,3.10
2022-08-02T05:05:23.228Z,3.85
2022-08-02T05:07:49.808Z,3.17
2022-08-02T05:10:16.246Z,3.17
2022-08-02T05:12:42.799Z,3.60
2022-08-02T05:15:12.600Z,3.63
2022-08-02T05:17:40.678Z,3.17
2022-08-02T05:20:15.964Z,3.67
2022-08-02T05:22:42.712Z,3.33
2022-08-02T05:25:10.100Z,3.28
2022-08-02T05:27:36.757Z,2.72
2022-08-02T05:30:04.624Z,2.78
2022-08-02T05:32:31.161Z,2.90
2022-08-02T05:34:57.832Z,3.30
2022-08-02T05:37:24.374Z,2.60
2022-08-02T05:39:55.497Z,2.60
2022-08-02T05:42:23.551Z,2.70
2022-08-02T05:44:50.278Z,2.92
2022-08-02T05:47:16.987Z,2.92
2022-08-02T05:49:43.487Z,3.33
2022-08-02T05:52:15.952Z,3.15
2022-08-02T05:55:15.014Z,2.95
2022-08-02T05:57:50.511Z,3.15
2022-08-02T06:00:17.792Z,3.45
2022-08-02T06:03:16.540Z,2.92
2022-08-02T06:06:12.432Z,2.90
2022-08-02T06:08:48.368Z,2.58
2022-08-02T06:11:17.375Z,3.08
2022-08-02T06:13:45.930Z,2.80
2022-08-02T06:16:14.925Z,3.20
2022-08-02T06:18:43.611Z,3.17
2022-08-02T06:22:35.790Z,4.25
2022-08-02T06:23:59.345Z,5.15
2022-08-02T06:26:29.072Z,4.38
2022-08-02T06:28:58.181Z,5.30
2022-08-02T06:31:25.347Z,5.05
2022-08-02T06:33:52.216Z,5.72
2022-08-02T06:36:49.437Z,5.68
2022-08-02T06:39:25.721Z,5.40
2022-08-02T06:41:54.600Z,5.40
2022-08-02T06:47:13.270Z,5.35
2022-08-02T06:49:52.541Z,6.45
2022-08-02T06:52:33.159Z,4.82
2022-08-02T06:55:01.636Z,3.92
2022-08-02T06:57:29.349Z,3.63
2022-08-02T06:59:56.392Z,2.97
2022-08-02T07:02:23.247Z,2.88
2022-08-02T07:04:49.885Z,2.97
2022-08-02T07:07:16.481Z,2.88
2022-08-02T07:09:56.311Z,3.05
2022-08-02T07:12:29.068Z,2.85
2022-08-02T07:14:55.648Z,3.50
2022-08-02T07:17:22.359Z,2.97
2022-08-02T07:19:48.898Z,3.17
2022-08-02T07:22:15.847Z,3.05
2022-08-02T07:24:42.539Z,3.40
2022-08-02T07:27:11.724Z,3.80
2022-08-02T07:29:44.971Z,3.25
2022-08-02T07:32:21.224Z,3.10
2022-08-02T07:34:52.601Z,3.00
2022-08-02T07:37:53.551Z,2.97
2022-08-02T07:40:13.799Z,3.22
2022-08-02T07:42:43.493Z,3.38
2022-08-02T07:45:11.928Z,2.85
2022-08-02T07:47:39.837Z,2.55
2022-08-02T07:50:07.890Z,1.80
2022-08-02T07:52:34.660Z,1.80
2022-08-02T07:55:01.244Z,2.20
2022-08-02T07:57:27.676Z,2.00
2022-08-02T07:59:54.133Z,2.40
2022-08-02T08:02:20.627Z,2.38
2022-08-02T08:04:47.107Z,1.92
2022-08-02T08:07:13.575Z,2.03
2022-08-02T08:09:42.070Z,1.80
2022-08-02T08:12:10.163Z,1.80
2022-08-02T08:14:38.803Z,1.85
2022-08-02T08:17:06.406Z,1.80
2022-08-02T08:19:36.497Z,1.75
2022-08-02T08:22:21.713Z,1.90
2022-08-02T08:24:48.922Z,1.30
2022-08-02T08:27:16.278Z,1.38
2022-08-02T08:29:43.461Z,1.40
2022-08-02T08:32:15.792Z,1.48
2022-08-02T08:34:43.043Z,1.20
2022-08-02T08:37:09.558Z,1.55
2022-08-02T08:39:57.803Z,1.40
2022-08-02T08:42:30.396Z,1.20
2022-08-02T08:44:58.691Z,1.17
2022-08-02T08:47:34.812Z,1.20
2022-08-02T08:50:04.960Z,1.13
2022-08-02T08:55:03.507Z,1.30
2022-08-02T08:57:30.612Z,1.45
2022-08-02T08:59:57.263Z,1.10
2022-08-02T09:02:28.057Z,1.20
2022-08-02T09:04:55.544Z,1.00
2022-08-02T09:07:23.281Z,1.65
2022-08-02T09:09:49.856Z,0.90
2022-08-02T09:12:19.475Z,1.10
2022-08-02T09:14:46.512Z,1.17
2022-08-02T09:17:17.818Z,0.90
2022-08-02T09:19:45.912Z,1.05
2022-08-02T09:22:15.098Z,1.23
2022-08-02T09:24:44.332Z,1.00
2022-08-02T09:27:16.101Z,1.00
2022-08-02T09:30:12.283Z,1.05
2022-08-02T09:32:48.249Z,1.00
2022-08-02T09:36:06.503Z,1.25
2022-08-02T09:38:18.514Z,0.90
2022-08-02T09:40:45.228Z,1.00
2022-08-02T09:43:11.811Z,1.00
2022-08-02T09:45:38.506Z,0.90
2022-08-02T09:48:09.195Z,1.00
2022-08-02T09:50:41.058Z,1.00
2022-08-02T09:53:14.244Z,0.98
2022-08-02T09:55:42.175Z,1.23
2022-08-02T09:58:22.124Z,1.00
2022-08-02T10:03:23.031Z,0.85
2022-08-02T10:06:02.252Z,1.00
2022-08-02T10:08:32.870Z,1.00
2022-08-02T10:11:00.787Z,0.85
2022-08-02T10:13:34.354Z,0.73
2022-08-02T10:16:02.662Z,0.98
2022-08-02T10:18:38.822Z,0.90
2022-08-02T10:21:22.319Z,0.90
2022-08-02T10:23:50.137Z,0.75
2022-08-02T10:26:20.688Z,1.00
2022-08-02T10:28:49.437Z,1.00
2022-08-02T10:31:28.273Z,0.70
2022-08-02T10:33:58.552Z,0.90
2022-08-02T10:36:27.274Z,0.70
2022-08-02T10:38:55.432Z,0.82
2022-08-02T10:41:40.887Z,0.65
2022-08-02T10:44:07.866Z,0.70
2022-08-02T10:46:51.182Z,0.80
2022-08-02T10:49:39.746Z,1.00
2022-08-02T10:52:08.781Z,0.67
2022-08-02T10:54:41.663Z,0.52
2022-08-02T10:57:35.392Z,0.80
2022-08-02T11:00:34.628Z,0.60
2022-08-02T11:03:01.452Z,0.70
2022-08-02T11:05:43.284Z,0.70
2022-08-02T11:08:21.663Z,0.45
2022-08-02T11:10:48.219Z,0.50
2022-08-02T11:13:19.692Z,0.70
2022-08-02T11:16:10.778Z,0.73
2022-08-02T11:18:44.319Z,0.70
2022-08-02T11:21:22.120Z,0.70
2022-08-02T11:23:49.618Z,0.80
2022-08-02T11:26:31.277Z,0.60
2022-08-02T11:29:05.282Z,0.40
2022-08-02T11:31:44.073Z,0.63
2022-08-02T11:34:36.441Z,0.60
2022-08-02T11:36:58.911Z,0.38
2022-08-02T11:39:25.438Z,0.50
2022-08-02T11:41:55.073Z,0.40
2022-08-02T11:44:25.499Z,0.60
2022-08-02T11:47:00.703Z,0.63
2022-08-02T11:49:29.040Z,0.60
2022-08-02T11:52:05.330Z,0.47
2022-08-02T11:54:35.267Z,0.60
2022-08-02T11:57:20.324Z,0.50
2022-08-02T11:59:50.173Z,0.57
2022-08-02T12:02:17.838Z,0.80
2022-08-02T12:04:53.322Z,0.68
2022-08-02T12:07:35.015Z,0.63
2022-08-02T12:10:11.392Z,0.50
2022-08-02T12:12:54.478Z,0.55
2022-08-02T12:15:41.490Z,0.70
2022-08-02T12:18:32.058Z,0.60
2022-08-02T12:20:59.083Z,0.68
2022-08-02T12:23:26.343Z,0.60
2022-08-02T12:26:06.365Z,0.77
2022-08-02T12:28:39.095Z,0.60
2022-08-02T12:31:07.599Z,0.68
2022-08-02T12:33:50.174Z,0.75
2022-08-02T12:36:21.875Z,0.70
2022-08-02T12:38:55.473Z,0.40
2022-08-02T12:41:30.325Z,0.68
2022-08-02T12:43:59.778Z,0.60
2022-08-02T12:46:26.761Z,0.65
2022-08-02T12:49:16.508Z,0.40
2022-08-02T12:51:55.615Z,0.63
2022-08-02T12:54:38.282Z,0.55
2022-08-02T12:57:12.963Z,0.95
2022-08-02T12:59:42.238Z,0.70
2022-08-02T13:02:11.581Z,0.57
2022-08-02T13:04:39.120Z,0.70
2022-08-02T13:07:06.536Z,0.88
2022-08-02T13:09:38.621Z,0.50
2022-08-02T13:12:06.826Z,0.57
2022-08-02T13:14:39.630Z,0.70
2022-08-02T13:17:10.039Z,0.38
2022-08-02T13:19:38.147Z,0.55
2022-08-02T13:22:05.315Z,0.40
2022-08-02T13:24:41.080Z,0.65
2022-08-02T13:27:20.879Z,0.65
2022-08-02T13:29:48.898Z,0.57
2022-08-02T13:32:16.474Z,0.50
2022-08-02T13:34:43.462Z,0.70
2022-08-02T13:37:10.305Z,0.60
2022-08-02T13:39:39.942Z,0.70
2022-08-02T13:42:07.005Z,0.73
2022-08-02T13:44:34.509Z,1.00
2022-08-02T13:47:02.213Z,0.82
2022-08-02T13:49:49.722Z,0.70
2022-08-02T13:52:16.252Z,0.70
2022-08-02T13:54:43.192Z,0.60
2022-08-02T13:57:09.836Z,0.63
2022-08-02T13:59:58.017Z,0.70
2022-08-02T14:02:23.209Z,0.63
2022-08-02T14:04:49.915Z,0.90
2022-08-02T14:07:16.466Z,0.70
2022-08-02T14:09:43.572Z,0.75
2022-08-02T14:12:11.105Z,0.70
2022-08-02T14:14:37.895Z,0.70
2022-08-02T14:17:04.417Z,0.60
2022-08-02T14:19:31.215Z,0.60
2022-08-02T14:22:11.449Z,0.80
2022-08-02T14:24:41.338Z,0.60
2022-08-02T14:27:08.155Z,0.50
2022-08-02T14:29:34.770Z,0.85
2022-08-02T14:32:01.684Z,0.70
2022-08-02T14:34:29.151Z,0.77
2022-08-02T14:36:56.273Z,0.82
2022-08-02T14:39:23.002Z,0.68
2022-08-02T14:41:59.987Z,0.60
2022-08-02T14:44:30.371Z,0.70
2022-08-02T14:46:57.366Z,0.70
2022-08-02T14:49:25.987Z,0.60
2022-08-02T14:54:28.129Z,0.50
2022-08-02T14:57:01.787Z,0.70
2022-08-02T14:59:29.510Z,0.55
2022-08-02T15:01:56.072Z,0.57
2022-08-02T15:04:22.819Z,0.70
2022-08-02T15:06:49.343Z,0.70
2022-08-02T15:09:16.034Z,0.80
2022-08-02T15:11:48.105Z,0.60
2022-08-02T15:14:21.748Z,0.60
2022-08-02T15:16:58.400Z,0.85
2022-08-02T15:19:44.935Z,0.70
2022-08-02T15:22:16.845Z,0.68
2022-08-02T15:24:46.900Z,0.57
2022-08-02T15:27:14.785Z,0.75
2022-08-02T15:29:43.607Z,0.63
2022-08-02T15:32:11.216Z,0.47
2022-08-02T15:34:38.423Z,0.60
2022-08-02T15:37:04.983Z,0.65
2022-08-02T15:39:31.669Z,0.70
2022-08-02T15:41:58.288Z,0.52
2022-08-02T15:44:24.993Z,0.70
2022-08-02T15:46:51.785Z,0.90
2022-08-02T15:49:20.286Z,0.70
2022-08-02T15:51:46.889Z,0.70
2022-08-02T15:54:13.313Z,0.73
2022-08-02T15:56:39.818Z,0.77
2022-08-02T15:59:06.287Z,0.68
2022-08-02T16:01:37.832Z,0.60
2022-08-02T16:04:06.733Z,0.70
2022-08-02T16:06:34.291Z,0.77
2022-08-02T16:09:01.278Z,0.85
2022-08-02T16:11:28.140Z,0.70
2022-08-02T16:13:55.052Z,0.98
2022-08-02T16:16:23.442Z,0.60
2022-08-02T16:18:50.084Z,0.80
2022-08-02T16:21:16.646Z,0.80
2022-08-02T16:24:01.600Z,0.50
2022-08-02T16:26:31.401Z,0.70
2022-08-02T16:28:59.380Z,0.60
2022-08-02T16:31:26.097Z,0.60
2022-08-02T16:33:56.610Z,0.80
2022-08-02T16:36:24.398Z,0.77
2022-08-02T16:38:50.876Z,0.80
2022-08-02T16:41:17.344Z,0.90
2022-08-02T16:43:43.844Z,0.80
2022-08-02T16:46:10.374Z,1.00
2022-08-02T16:48:37.220Z,0.90
2022-08-02T16:51:04.577Z,0.80
2022-08-02T16:53:37.237Z,0.80
2022-08-02T16:56:05.476Z,0.60
2022-08-02T16:58:31.925Z,0.80
2022-08-02T17:00:58.484Z,0.80
2022-08-02T17:03:24.991Z,0.90
2022-08-02T17:06:11.495Z,0.55
2022-08-02T17:08:54.138Z,0.70
2022-08-02T17:11:21.616Z,0.75
2022-08-02T17:13:50.811Z,0.63
2022-08-02T17:16:20.524Z,0.50
2022-08-02T17:18:53.018Z,0.80
2022-08-02T17:21:19.819Z,0.80
2022-08-02T17:24:06.073Z,0.90
2022-08-02T17:26:32.992Z,1.10
2022-08-02T17:29:17.758Z,0.80
2022-08-02T17:32:04.768Z,0.57
2022-08-02T17:34:33.468Z,0.60
2022-08-02T17:37:00.199Z,0.98
2022-08-02T17:39:33.796Z,1.10
2022-08-02T17:42:01.646Z,1.00
2022-08-02T17:44:36.573Z,0.90
2022-08-02T17:47:06.506Z,0.90
2022-08-02T17:49:33.202Z,0.80
2022-08-02T17:52:49.148Z,0.73
2022-08-02T17:54:46.315Z,0.80
2022-08-02T17:57:12.903Z,0.80
2022-08-02T17:59:41.989Z,1.20
2022-08-02T18:02:11.486Z,0.77
2022-08-02T18:04:38.253Z,1.02
2022-08-02T18:07:09.419Z,0.93
2022-08-02T18:09:45.069Z,0.80
2022-08-02T18:12:14.486Z,0.80
2022-08-02T18:14:46.047Z,1.05
2022-08-02T18:17:16.892Z,0.65
2022-08-02T18:19:55.460Z,0.85
2022-08-02T18:22:26.942Z,0.70
2022-08-02T18:24:53.910Z,0.85
2022-08-02T18:27:20.568Z,1.05
2022-08-02T18:29:47.344Z,0.80
2022-08-02T18:32:14.117Z,0.73
2022-08-02T18:34:40.819Z,1.00
2022-08-02T18:37:14.149Z,0.80
2022-08-02T18:39:51.169Z,0.63
2022-08-02T18:42:18.504Z,0.95
2022-08-02T18:44:45.072Z,1.10
2022-08-02T18:47:11.584Z,0.73
2022-08-02T18:49:46.151Z,0.90
2022-08-02T18:52:14.932Z,0.80
2022-08-02T18:54:41.966Z,1.00
2022-08-02T18:59:56.663Z,1.10
2022-08-02T19:02:31.789Z,0.90
2022-08-02T19:04:59.938Z,1.17
2022-08-02T19:07:51.423Z,1.00
2022-08-02T19:10:13.480Z,0.90
2022-08-02T19:12:40.257Z,0.90
2022-08-02T19:15:08.183Z,1.10
2022-08-02T19:17:55.598Z,0.82
2022-08-02T19:20:21.157Z,0.77
2022-08-02T19:22:49.984Z,0.95
2022-08-02T19:25:20.922Z,0.95
2022-08-02T19:27:54.958Z,0.95
2022-08-02T19:30:25.824Z,0.80
2022-08-02T19:32:59.448Z,0.90
2022-08-02T19:35:29.757Z,1.00
2022-08-02T19:38:07.265Z,1.00
2022-08-02T19:40:33.794Z,1.05
2022-08-02T19:44:24.050Z,0.90
2022-08-02T19:45:50.527Z,1.38
2022-08-02T19:48:23.423Z,1.23
2022-08-02T19:50:53.514Z,1.40
2022-08-02T19:53:22.725Z,1.40
2022-08-02T19:56:01.546Z,1.20
2022-08-02T19:58:30.461Z,1.30
2022-08-02T20:00:58.030Z,2.03
2022-08-02T20:03:39.906Z,1.40
2022-08-02T20:06:12.340Z,1.20
2022-08-02T20:08:39.489Z,1.10
2022-08-02T20:11:06.902Z,1.75
2022-08-02T20:13:47.165Z,1.00
2022-08-02T20:16:27.526Z,1.08
2022-08-02T20:19:05.619Z,1.35
2022-08-02T20:21:36.982Z,1.25
2022-08-02T20:26:35.365Z,1.20
2022-08-02T20:29:03.652Z,1.08
2022-08-02T20:31:30.595Z,1.25
2022-08-02T20:33:57.446Z,1.10
2022-08-02T20:36:25.484Z,1.10
2022-08-02T20:38:52.425Z,1.10
2022-08-02T20:41:22.139Z,1.35
2022-08-02T20:43:49.310Z,1.23
2022-08-02T20:46:16.213Z,1.10
2022-08-02T20:48:44.138Z,1.10
2022-08-02T20:51:12.375Z,1.10
2022-08-02T20:53:55.097Z,1.20
2022-08-02T20:56:23.402Z,1.33
2022-08-02T20:58:52.095Z,1.15
2022-08-02T21:01:21.118Z,0.93
2022-08-02T21:03:58.761Z,1.00
2022-08-02T21:06:29.762Z,1.10
2022-08-02T21:08:56.811Z,1.15
2022-08-02T21:11:33.473Z,1.00
2022-08-02T21:14:07.877Z,1.13
2022-08-02T21:16:36.801Z,0.95
2022-08-02T21:19:08.103Z,1.20
2022-08-02T21:21:36.892Z,1.00
2022-08-02T21:24:04.032Z,1.25
2022-08-02T21:26:32.419Z,1.30
2022-08-02T21:29:03.989Z,1.15
2022-08-02T21:31:35.887Z,1.10
2022-08-02T21:34:19.221Z,0.90
2022-08-02T21:36:49.670Z,1.27
2022-08-02T21:39:17.090Z,1.33
2022-08-02T21:41:46.537Z,1.20
2022-08-02T21:44:18.723Z,1.00
2022-08-02T21:46:49.388Z,1.40
2022-08-02T21:49:17.812Z,1.08
2022-08-02T21:54:31.639Z,1.35
2022-08-02T21:57:00.565Z,1.10
2022-08-02T21:59:27.006Z,1.25
2022-08-02T22:01:56.924Z,1.10
2022-08-02T22:06:50.986Z,1.10
2022-08-02T22:09:44.107Z,1.20
2022-08-02T22:12:09.774Z,1.30
2022-08-02T22:14:39.447Z,1.15
2022-08-02T22:17:09.108Z,1.23
2022-08-02T22:19:40.073Z,1.17
2022-08-02T22:24:46.802Z,1.40
2022-08-02T22:27:14.100Z,1.25
2022-08-02T22:29:40.626Z,1.30
2022-08-02T22:32:07.315Z,1.23
2022-08-02T22:34:51.256Z,1.23
2022-08-02T22:38:15.235Z,1.00
2022-08-02T22:40:08.609Z,1.13
2022-08-02T22:42:53.933Z,1.30
2022-08-02T22:45:22.223Z,1.35
2022-08-02T22:47:50.814Z,1.23
2022-08-02T22:50:19.084Z,0.88
2022-08-02T22:52:46.802Z,1.10
2022-08-02T22:55:17.777Z,0.90
2022-08-02T22:57:56.296Z,1.00
2022-08-02T22:58:46.368Z,1.10
2022-08-02T22:59:03.619Z,0.98
2022-08-02T23:00:25.106Z,1.20
2022-08-02T23:02:51.738Z,1.27
2022-08-02T23:05:18.452Z,1.13
2022-08-02T23:07:45.186Z,1.20
2022-08-02T23:10:11.698Z,1.23
2022-08-02T23:12:38.256Z,1.08
2022-08-02T23:15:05.174Z,1.30
2022-08-02T23:17:50.086Z,1.08
2022-08-02T23:20:20.116Z,1.10
2022-08-02T23:22:46.586Z,1.20
2022-08-02T23:25:14.510Z,1.00
2022-08-02T23:27:49.663Z,1.20
2022-08-02T23:30:17.213Z,1.08
2022-08-02T23:32:43.756Z,1.27
2022-08-02T23:35:10.575Z,1.10
2022-08-02T23:37:59.786Z,1.00
2022-08-02T23:40:38.818Z,1.08
2022-08-02T23:43:14.686Z,0.95
2022-08-02T23:45:48.413Z,1.00
2022-08-02T23:48:15.049Z,1.17
2022-08-02T23:50:41.519Z,1.30
2022-08-02T23:53:08.014Z,0.82
2022-08-02T23:55:34.669Z,1.00
2022-08-02T23:58:01.116Z,1.13
